Time;durP1;ratioP1;P1;durP2;ratioP2;P2;SDS_P1;SDS_P2;PMS_P1;PMS_P2;Temp;Humidity;BMP_temperature;BMP_pressure;BME280_temperature;BME280_humidity;BME280_pressure;Samples;Min_cycle;Max_cycle;Signal;HPM_P1;HPM_P2
2020/12/27 00:01:32;;;;;;;14.55;9.53;;;;;;;7.29;48.37;101195.71;1817954;78;21054;-82
2020/12/27 00:04:00;;;;;;;13.72;9.58;;;;;;;7.25;48.42;101198.25;1817794;78;21129;-76
2020/12/27 00:06:28;;;;;;;15.60;9.13;;;;;;;7.26;48.37;101205.27;1817914;78;21154;-77
2020/12/27 00:08:55;;;;;;;13.05;8.60;;;;;;;7.26;48.32;101202.60;1817687;78;21374;-78
2020/12/27 00:11:23;;;;;;;13.50;8.10;;;;;;;7.26;48.46;101206.11;1817991;78;21161;-79
2020/12/27 00:13:51;;;;;;;15.83;8.55;;;;;;;7.25;48.45;101212.41;1817736;78;21112;-78
2020/12/27 00:16:26;;;;;;;13.45;8.50;;;;;;;7.26;48.48;101208.78;1817772;78;21133;-77
2020/12/27 00:18:54;;;;;;;13.85;9.28;;;;;;;7.24;48.44;101216.55;1817721;78;21200;-78
2020/12/27 00:21:22;;;;;;;15.13;9.10;;;;;;;7.23;48.47;101216.19;1817963;78;22612;-76
2020/12/27 00:23:49;;;;;;;14.33;8.95;;;;;;;7.21;48.38;101214.10;1818750;78;21732;-76
2020/12/27 00:26:18;;;;;;;15.38;9.60;;;;;;;7.17;48.37;101214.81;1818838;78;21173;-78
2020/12/27 00:28:46;;;;;;;19.45;9.43;;;;;;;7.12;48.36;101209.84;1818078;78;21161;-78
2020/12/27 00:31:17;;;;;;;14.90;8.90;;;;;;;7.11;48.44;101209.97;1817990;78;21121;-79
2020/12/27 00:33:45;;;;;;;17.12;10.30;;;;;;;7.11;48.54;101204.64;1817739;78;22191;-80
2020/12/27 00:36:22;;;;;;;16.77;9.73;;;;;;;7.11;48.57;101213.48;1817654;78;21039;-77
2020/12/27 00:38:50;;;;;;;15.32;9.65;;;;;;;7.09;48.52;101219.42;1817626;78;21438;-76
2020/12/27 00:41:25;;;;;;;14.07;9.03;;;;;;;7.09;48.54;101217.23;1817829;78;21165;-76
2020/12/27 00:43:53;;;;;;;13.72;8.55;;;;;;;7.06;48.58;101212.98;1817884;78;21160;-77
2020/12/27 00:46:20;;;;;;;13.53;8.55;;;;;;;7.03;48.56;101215.88;1817898;78;21796;-77
2020/12/27 00:48:48;;;;;;;11.60;7.80;;;;;;;7.01;48.62;101216.48;1817639;78;21615;-77
2020/12/27 00:51:20;;;;;;;12.93;8.05;;;;;;;7.00;48.56;101210.80;1817959;78;21201;-77
2020/12/27 00:53:48;;;;;;;17.42;7.60;;;;;;;6.98;48.71;101210.05;1817754;78;21153;-76
2020/12/27 00:56:16;;;;;;;13.98;8.75;;;;;;;6.99;48.65;101209.07;1818068;78;21195;-75
2020/12/27 00:58:46;;;;;;;15.30;8.80;;;;;;;6.97;48.60;101204.36;1815498;78;21763;-77
2020/12/27 01:01:14;;;;;;;13.10;8.63;;;;;;;6.97;48.62;101213.69;1817838;78;21149;-79
2020/12/27 01:03:43;;;;;;;14.78;8.58;;;;;;;6.97;48.55;101212.35;1817753;78;21153;-78
2020/12/27 01:06:12;;;;;;;13.60;8.80;;;;;;;6.95;48.53;101211.63;1817147;78;21579;-78
2020/12/27 01:08:40;;;;;;;13.30;8.65;;;;;;;6.94;48.47;101214.39;1817438;78;21172;-78
2020/12/27 01:11:09;;;;;;;11.63;8.45;;;;;;;6.92;48.55;101217.18;1817429;78;21348;-79
2020/12/27 01:13:37;;;;;;;14.20;8.10;;;;;;;6.92;48.57;101220.33;1785923;78;21185;-78
2020/12/27 01:16:13;;;;;;;16.52;8.78;;;;;;;6.92;48.61;101222.99;1817706;78;21165;-77
2020/12/27 01:18:44;;;;;;;16.32;8.98;;;;;;;6.91;48.53;101223.48;1817558;78;21165;-79
2020/12/27 01:21:27;;;;;;;14.68;8.78;;;;;;;6.91;48.50;101223.97;1817679;78;21169;-79
2020/12/27 01:23:58;;;;;;;14.60;9.25;;;;;;;6.90;48.46;101223.58;1817705;78;21894;-79
2020/12/27 01:26:30;;;;;;;15.55;9.15;;;;;;;6.89;48.45;101221.40;1817807;78;21130;-76
2020/12/27 01:28:59;;;;;;;14.85;9.80;;;;;;;6.91;48.46;101222.63;1817940;78;21133;-76
2020/12/27 01:31:27;;;;;;;14.68;9.48;;;;;;;6.91;48.45;101229.30;1817858;78;21572;-77
2020/12/27 01:33:55;;;;;;;16.60;10.08;;;;;;;6.89;48.48;101230.72;1817885;78;21367;-77
2020/12/27 01:36:29;;;;;;;18.55;9.85;;;;;;;6.87;48.41;101245.98;1817438;78;21578;-77
2020/12/27 01:38:59;;;;;;;18.75;11.00;;;;;;;6.88;48.37;101241.02;1817853;78;22124;-76
2020/12/27 01:41:26;;;;;;;22.48;11.20;;;;;;;6.89;48.35;101244.52;1817785;78;21181;-78
2020/12/27 01:44:11;;;;;;;19.55;9.93;;;;;;;6.89;48.29;101250.69;1778898;80;21147;-77
2020/12/27 01:46:43;;;;;;;24.30;11.18;;;;;;;6.89;48.31;101256.02;1779051;80;21181;-76
2020/12/27 01:49:13;;;;;;;23.30;10.88;;;;;;;6.89;48.20;101260.02;1778754;80;21378;-78
2020/12/27 01:51:42;;;;;;;20.17;10.25;;;;;;;6.88;48.18;101264.98;1817600;78;21193;-77
2020/12/27 01:54:10;;;;;;;22.95;10.75;;;;;;;6.88;48.10;101272.97;1817831;78;21156;-77
2020/12/27 01:56:43;;;;;;;18.55;9.73;;;;;;;6.87;48.11;101276.60;1785464;78;21153;-75
2020/12/27 01:59:18;;;;;;;18.80;9.75;;;;;;;6.84;47.99;101268.83;1817876;78;21153;-78
2020/12/27 02:01:47;;;;;;;18.55;9.43;;;;;;;6.82;47.86;101270.77;1785931;78;21372;-76
2020/12/27 02:04:33;;;;;;;19.37;8.65;;;;;;;6.80;47.97;101272.68;1817207;78;21136;-77
2020/12/27 02:07:03;;;;;;;12.73;7.70;;;;;;;6.78;47.98;101272.80;1786183;78;21082;-76
2020/12/27 02:09:35;;;;;;;14.60;8.03;;;;;;;6.76;47.97;101277.86;1813240;78;21497;-77
2020/12/27 02:12:10;;;;;;;12.23;7.45;;;;;;;6.76;47.97;101281.86;1762422;78;21145;-75
2020/12/27 02:14:40;;;;;;;15.50;7.75;;;;;;;6.75;47.93;101278.34;1817690;78;21366;-78
2020/12/27 02:17:08;;;;;;;12.03;6.72;;;;;;;6.73;47.98;101282.95;1817771;78;21220;-75
2020/12/27 02:19:47;;;;;;;11.00;6.83;;;;;;;6.73;47.96;101282.10;1816573;78;21473;-78
2020/12/27 02:22:17;;;;;;;9.30;6.80;;;;;;;6.74;47.94;101275.81;1816474;78;21184;-80
2020/12/27 02:24:48;;;;;;;9.75;6.53;;;;;;;6.73;47.89;101274.97;1812982;78;21189;-79
2020/12/27 02:27:18;;;;;;;10.63;6.55;;;;;;;6.74;47.83;101278.47;1817944;78;23145;-77
2020/12/27 02:29:47;;;;;;;10.10;6.83;;;;;;;6.73;47.76;101278.11;1817674;78;21180;-81
2020/12/27 02:32:17;;;;;;;10.35;6.67;;;;;;;6.71;47.80;101279.53;1817877;78;21228;-77
2020/12/27 02:34:45;;;;;;;10.90;7.00;;;;;;;6.69;47.78;101290.79;1817363;78;21150;-76
2020/12/27 02:37:14;;;;;;;11.38;6.75;;;;;;;6.68;47.77;101292.25;1817967;78;21184;-79
2020/12/27 02:39:43;;;;;;;8.45;6.03;;;;;;;6.69;47.73;101299.27;1815715;78;21816;-79
2020/12/27 02:42:11;;;;;;;8.98;6.53;;;;;;;6.67;47.74;101294.03;1817807;78;21184;-76
2020/12/27 02:44:52;;;;;;;13.25;7.95;;;;;;;6.66;47.74;101294.16;1817650;78;21149;-78
2020/12/27 02:47:24;;;;;;;15.85;8.80;;;;;;;6.69;47.71;101293.94;1852163;77;22655;-77
2020/12/27 02:49:53;;;;;;;14.43;9.63;;;;;;;6.63;47.72;101293.88;1818219;78;21136;-77
2020/12/27 02:52:22;;;;;;;13.70;9.83;;;;;;;6.64;47.78;101306.25;1857525;77;22324;-79
2020/12/27 02:54:49;;;;;;;14.90;9.90;;;;;;;6.64;47.74;101312.06;1857228;77;21194;-78
2020/12/27 02:57:19;;;;;;;13.68;8.88;;;;;;;6.64;47.68;101315.58;1857436;77;21150;-81
2020/12/27 02:59:47;;;;;;;11.12;8.00;;;;;;;6.64;47.68;101322.23;1857463;77;21186;-76
2020/12/27 03:02:22;;;;;;;12.53;7.60;;;;;;;6.65;47.60;101320.41;1802974;77;21672;-77
2020/12/27 03:04:53;;;;;;;11.30;7.53;;;;;;;6.65;47.59;101329.25;1854853;77;21376;-76
2020/12/27 03:07:21;;;;;;;10.90;6.95;;;;;;;6.65;47.54;101328.41;1858641;77;21158;-78
2020/12/27 03:09:51;;;;;;;11.57;6.50;;;;;;;6.65;47.50;101335.05;1857149;77;21191;-77
2020/12/27 03:12:24;;;;;;;12.37;7.83;;;;;;;6.63;47.51;101333.81;1856141;77;21194;-79
2020/12/27 03:14:51;;;;;;;10.08;6.35;;;;;;;6.64;47.50;101332.03;1857399;77;21178;-77
2020/12/27 03:17:37;;;;;;;11.50;6.60;;;;;;;6.66;47.41;101335.41;1857321;77;21780;-78
2020/12/27 03:20:16;;;;;;;8.58;5.75;;;;;;;6.64;47.36;101328.04;1855993;77;21225;-81
2020/12/27 03:22:38;;;;;;;9.88;6.12;;;;;;;6.65;47.27;101337.72;1855366;77;21138;-75
2020/12/27 03:25:11;;;;;;;8.85;6.25;;;;;;;6.63;47.22;101334.30;1846675;77;21182;-78
2020/12/27 03:27:40;;;;;;;10.18;6.60;;;;;;;6.60;47.14;101332.24;1857263;77;21161;-78
2020/12/27 03:30:08;;;;;;;13.85;7.75;;;;;;;6.62;47.20;101338.77;1857266;77;21901;-76
2020/12/27 03:32:38;;;;;;;13.62;8.15;;;;;;;6.64;47.13;101340.02;1857032;77;21130;-79
2020/12/27 03:35:07;;;;;;;15.55;9.88;;;;;;;6.64;47.13;101346.67;1857229;77;21649;-77
2020/12/27 03:37:37;;;;;;;18.05;10.55;;;;;;;6.64;47.17;101352.00;1857490;77;21161;-80
2020/12/27 03:40:13;;;;;;;18.42;11.48;;;;;;;6.66;47.12;101352.72;1857872;77;21154;-80
2020/12/27 03:42:58;;;;;;;21.90;13.05;;;;;;;6.65;47.08;101357.69;1855784;77;21207;-77
2020/12/27 03:45:28;;;;;;;21.87;12.37;;;;;;;6.64;47.12;101358.16;1857329;77;21190;-76
2020/12/27 03:48:12;;;;;;;21.93;13.10;;;;;;;6.63;47.11;101362.25;1758610;81;21187;-78
2020/12/27 03:51:00;;;;;;;26.85;17.35;;;;;;;6.64;47.16;101363.49;1863184;76;28375;-80
2020/12/27 03:53:29;;;;;;;23.57;13.78;;;;;;;6.68;47.06;101375.63;1813428;79;21049;-78
2020/12/27 03:56:05;;;;;;;17.42;11.57;;;;;;;6.74;47.00;101374.33;1803362;79;21196;-76
2020/12/27 03:58:51;;;;;;;14.45;10.43;;;;;;;6.71;46.94;101378.53;1837452;78;21193;-79
2020/12/27 04:01:36;;;;;;;14.80;9.05;;;;;;;6.67;46.99;101379.22;1835956;78;21620;-77
2020/12/27 04:04:04;;;;;;;11.68;8.30;;;;;;;6.65;47.02;101384.30;1838050;78;21600;-77
2020/12/27 04:06:32;;;;;;;13.45;8.88;;;;;;;6.61;47.08;101397.83;1810201;78;21046;-79
2020/12/27 04:09:02;;;;;;;14.15;9.68;;;;;;;6.58;47.17;101398.03;1833811;77;21188;-75
2020/12/27 04:11:30;;;;;;;21.95;10.65;;;;;;;6.56;47.18;101397.79;1802329;79;21168;-78
2020/12/27 04:13:58;;;;;;;21.12;12.50;;;;;;;6.53;47.19;101404.65;1792271;79;21164;-77
2020/12/27 04:16:26;;;;;;;23.32;12.15;;;;;;;6.50;47.24;101401.75;1801212;79;21168;-78
2020/12/27 04:18:56;;;;;;;20.88;12.80;;;;;;;6.50;47.31;101407.55;1821557;78;21543;-78
2020/12/27 04:21:26;;;;;;;21.33;11.53;;;;;;;6.48;47.27;101406.30;1835708;78;21419;-77
2020/12/27 04:23:56;;;;;;;21.23;11.95;;;;;;;6.49;47.23;101404.49;1834021;78;21626;-76
2020/12/27 04:26:24;;;;;;;17.45;10.53;;;;;;;6.49;47.26;101410.66;1835730;78;21624;-75
2020/12/27 04:28:54;;;;;;;19.23;10.30;;;;;;;6.48;47.16;101412.11;1836404;78;21184;-77
2020/12/27 04:31:22;;;;;;;18.73;10.48;;;;;;;6.44;47.12;101414.14;1836155;78;21332;-78
2020/12/27 04:33:53;;;;;;;16.17;9.88;;;;;;;6.44;47.23;101416.80;1834454;78;21875;-77
2020/12/27 04:36:25;;;;;;;14.68;9.18;;;;;;;6.43;47.21;101422.23;1835333;78;21185;-77
2020/12/27 04:38:53;;;;;;;16.30;9.70;;;;;;;6.42;47.25;101420.06;1837005;78;21137;-77
2020/12/27 04:41:22;;;;;;;16.07;9.95;;;;;;;6.41;47.26;101414.38;1837222;78;21418;-77
2020/12/27 04:43:51;;;;;;;15.00;9.88;;;;;;;6.42;47.22;101409.41;1797667;79;21640;-78
2020/12/27 04:46:20;;;;;;;16.27;10.70;;;;;;;6.42;47.23;101410.75;1791990;78;21360;-78
2020/12/27 04:48:53;;;;;;;16.10;10.50;;;;;;;6.41;47.30;101414.38;1791021;79;21472;-79
2020/12/27 04:51:22;;;;;;;18.65;10.40;;;;;;;6.41;47.22;101421.51;1789779;80;21634;-78
2020/12/27 04:53:55;;;;;;;20.90;11.43;;;;;;;6.40;47.13;101413.97;1790831;79;21126;-80
2020/12/27 04:56:26;;;;;;;23.12;11.88;;;;;;;6.42;47.11;101420.06;1776088;80;21182;-79
2020/12/27 04:59:07;;;;;;;24.90;15.45;;;;;;;6.41;47.06;101425.02;1789506;79;21470;-80
2020/12/27 05:01:38;;;;;;;24.52;15.83;;;;;;;6.41;47.04;101421.51;1789977;80;21139;-79
2020/12/27 05:04:07;;;;;;;20.90;12.20;;;;;;;6.38;47.06;101427.88;1761524;79;21187;-79
2020/12/27 05:06:37;;;;;;;15.45;10.18;;;;;;;6.36;47.18;101429.81;1789161;79;21180;-80
2020/12/27 05:09:06;;;;;;;17.00;10.48;;;;;;;6.34;47.09;101421.07;1789608;80;21491;-81
2020/12/27 05:11:34;;;;;;;15.63;10.23;;;;;;;6.34;47.10;101419.25;1789736;80;21347;-80
2020/12/27 05:14:04;;;;;;;18.15;10.68;;;;;;;6.34;47.09;101419.25;1801553;79;21091;-80
2020/12/27 05:16:36;;;;;;;17.02;9.63;;;;;;;6.35;47.04;101426.75;1791065;78;21160;-79
2020/12/27 05:19:05;;;;;;;22.02;11.97;;;;;;;6.36;47.08;101433.80;1804464;78;21200;-78
2020/12/27 05:21:37;;;;;;;27.30;15.55;;;;;;;6.34;47.05;101432.56;1752755;79;21173;-79
2020/12/27 05:24:07;;;;;;;28.47;16.55;;;;;;;6.32;47.00;101436.30;1790980;78;21353;-79
2020/12/27 05:26:36;;;;;;;33.88;18.55;;;;;;;6.32;47.05;101446.95;1800929;79;21394;-81
2020/12/27 05:29:14;;;;;;;34.13;19.57;;;;;;;6.30;47.07;101452.36;1778509;78;21158;-80
2020/12/27 05:31:44;;;;;;;39.23;21.70;;;;;;;6.30;47.05;101454.16;1803636;78;21553;-79
2020/12/27 05:34:20;;;;;;;39.60;22.42;;;;;;;6.29;47.05;101453.80;1788131;78;21154;-78
2020/12/27 05:37:07;;;;;;;38.05;20.68;;;;;;;6.30;47.02;101458.16;1811761;78;21778;-77
2020/12/27 05:39:36;;;;;;;40.43;23.35;;;;;;;6.30;47.03;101464.81;1799057;78;21172;-79
2020/12/27 05:42:26;;;;;;;39.13;21.75;;;;;;;6.32;46.99;101470.41;1839720;77;23149;-80
2020/12/27 05:44:54;;;;;;;38.45;20.68;;;;;;;6.28;46.99;101484.87;1809064;78;21230;-77
2020/12/27 05:47:21;;;;;;;36.68;22.32;;;;;;;6.30;47.07;101487.42;1824522;78;21796;-77
2020/12/27 05:49:50;;;;;;;38.45;21.73;;;;;;;6.30;46.98;101490.09;1824658;78;21501;-77
2020/12/27 05:52:18;;;;;;;33.80;18.40;;;;;;;6.28;47.05;101494.19;1796363;78;21191;-78
2020/12/27 05:54:56;;;;;;;28.40;17.30;;;;;;;6.26;47.02;101495.24;1759492;79;21101;-80
2020/12/27 05:57:25;;;;;;;26.95;15.95;;;;;;;6.26;47.06;101506.73;1793368;80;21085;-77
2020/12/27 05:59:54;;;;;;;26.17;15.63;;;;;;;6.27;47.01;101506.28;1756755;79;21534;-78
2020/12/27 06:02:41;;;;;;;23.57;13.80;;;;;;;6.26;46.98;101510.72;1761704;80;21698;-80
2020/12/27 06:05:15;;;;;;;20.80;14.00;;;;;;;6.25;47.08;101504.19;1805743;79;21166;-78
2020/12/27 06:07:44;;;;;;;23.75;13.88;;;;;;;6.25;47.08;101503.70;1792028;80;21156;-78
2020/12/27 06:10:16;;;;;;;25.43;15.88;;;;;;;6.26;47.09;101505.88;1805826;79;21250;-80
2020/12/27 06:13:13;;;;;;;25.05;15.40;;;;;;;6.25;47.09;101509.51;1795186;78;21469;-77
2020/12/27 06:15:46;;;;;;;24.52;13.62;;;;;;;6.24;47.19;101515.31;1783293;80;21168;-80
2020/12/27 06:18:32;;;;;;;26.95;16.37;;;;;;;6.25;47.18;101527.65;1780463;80;21617;-80
2020/12/27 06:21:13;;;;;;;30.30;17.73;;;;;;;6.24;47.12;101531.27;1762191;79;21190;-78
2020/12/27 06:23:46;;;;;;;44.67;25.00;;;;;;;6.23;47.08;101529.58;1777401;79;21173;-78
2020/12/27 06:26:16;;;;;;;105.50;51.58;;;;;;;6.22;47.11;101528.33;1803659;78;21409;-78
2020/12/27 06:28:46;;;;;;;215.60;93.05;;;;;;;6.22;47.09;101539.84;1799102;79;21708;-78
2020/12/27 06:31:23;;;;;;;300.40;123.80;;;;;;;6.20;47.12;101535.58;1770142;79;21173;-79
2020/12/27 06:33:52;;;;;;;318.97;135.82;;;;;;;6.18;47.13;101546.81;1767184;80;21088;-78
2020/12/27 06:36:55;;;;;;;312.72;136.07;;;;;;;6.21;47.22;101551.91;1851637;77;23238;-80
2020/12/27 06:39:29;;;;;;;;;;;;;;;6.17;47.18;101551.73;1856043;77;21093;-79
2020/12/27 06:42:18;;;;;;;278.50;137.62;;;;;;;6.15;47.18;101562.97;1821055;77;21275;-81
2020/12/27 06:44:53;;;;;;;200.97;103.60;;;;;;;6.10;47.30;101569.45;1781709;78;21211;-80
2020/12/27 06:47:48;;;;;;;242.22;127.58;;;;;;;6.07;47.41;101572.30;1851543;77;21156;-81
2020/12/27 06:50:19;;;;;;;173.02;94.80;;;;;;;6.09;47.44;101575.73;1855776;77;21192;-80
2020/12/27 06:52:49;;;;;;;117.47;64.00;;;;;;;6.05;47.47;101591.98;1855173;77;21662;-83
2020/12/27 06:55:40;;;;;;;247.52;111.22;;;;;;;6.00;47.60;101594.95;1856285;77;21353;-80
2020/12/27 06:58:24;;;;;;;233.13;104.30;;;;;;;5.94;47.72;101596.66;1855922;77;21244;-81
2020/12/27 07:01:20;;;;;;;229.63;104.92;;;;;;;5.94;47.79;101605.97;1854905;77;21180;-80
2020/12/27 07:03:47;;;;;;;155.57;69.32;;;;;;;5.98;47.92;101603.49;1856465;77;21164;-78
2020/12/27 07:06:22;;;;;;;75.28;37.63;;;;;;;6.04;47.95;101600.45;1825834;77;21160;-80
2020/12/27 07:09:00;;;;;;;61.25;32.55;;;;;;;6.12;47.92;101597.74;1854564;77;21195;-80
2020/12/27 07:11:30;;;;;;;52.93;29.12;;;;;;;6.20;47.94;101602.08;1856555;77;21624;-78
2020/12/27 07:13:58;;;;;;;45.33;26.45;;;;;;;6.31;47.92;101600.42;1856457;77;21094;-78
2020/12/27 07:16:45;;;;;;;46.33;25.82;;;;;;;6.43;47.75;101598.73;1856666;77;21089;-82
2020/12/27 07:19:15;;;;;;;50.73;26.95;;;;;;;6.53;47.59;101601.62;1826384;77;21181;-81
2020/12/27 07:21:46;;;;;;;47.80;26.93;;;;;;;6.64;47.37;101600.42;1857223;77;21173;-80
2020/12/27 07:24:24;;;;;;;53.05;27.50;;;;;;;6.74;47.17;101607.30;1840424;77;21153;-79
2020/12/27 07:26:52;;;;;;;;;;;;;;;6.83;46.99;101603.52;1820621;78;21149;-79
2020/12/27 07:29:23;;;;;;;42.62;22.55;;;;;;;6.92;46.84;101607.36;1815946;78;28673;-79
2020/12/27 07:31:52;;;;;;;39.90;21.62;;;;;;;6.96;46.70;101614.19;1823403;78;21101;-78
2020/12/27 07:34:24;;;;;;;40.70;19.70;;;;;;;7.00;46.49;101611.69;1838231;77;22196;-78
2020/12/27 07:37:03;;;;;;;44.58;22.75;;;;;;;7.02;46.46;101607.09;1856464;77;21186;-80
2020/12/27 07:39:57;;;;;;;43.17;22.15;;;;;;;7.07;46.47;101606.28;1855898;77;21147;-78
2020/12/27 07:42:34;;;;;;;44.67;21.02;;;;;;;7.12;46.47;101602.81;1856268;77;21091;-80
2020/12/27 07:45:12;;;;;;;38.70;21.25;;;;;;;7.17;46.41;101605.16;1856237;77;21107;-79
2020/12/27 07:47:41;;;;;;;37.45;20.50;;;;;;;7.24;46.39;101610.92;1855515;77;26481;-81
2020/12/27 07:50:13;;;;;;;36.10;19.85;;;;;;;7.31;46.29;101617.50;1853186;77;21131;-78
2020/12/27 07:52:49;;;;;;;37.58;18.10;;;;;;;7.35;46.26;101615.84;1855042;77;21776;-78
2020/12/27 07:55:29;;;;;;;32.13;16.97;;;;;;;7.44;46.15;101621.48;1846310;77;21099;-78
2020/12/27 07:58:00;;;;;;;35.98;17.17;;;;;;;7.51;46.00;101626.77;1856176;75;21086;-78
2020/12/27 08:00:33;;;;;;;29.70;16.48;;;;;;;7.58;45.96;101626.67;1815977;78;21354;-79
2020/12/27 08:03:06;;;;;;;26.65;15.38;;;;;;;7.65;45.94;101631.10;1800066;78;21107;-78
2020/12/27 08:05:36;;;;;;;24.27;14.23;;;;;;;7.74;45.84;101629.11;1790417;80;21171;-79
2020/12/27 08:08:06;;;;;;;23.62;13.98;;;;;;;7.83;45.68;101629.77;1790239;80;21690;-78
2020/12/27 08:10:34;;;;;;;21.40;12.60;;;;;;;7.94;45.53;101640.50;1791111;80;21638;-79
2020/12/27 08:13:03;;;;;;;23.62;13.32;;;;;;;8.03;45.35;101639.82;1790716;80;21362;-80
2020/12/27 08:15:38;;;;;;;21.45;13.28;;;;;;;8.12;45.15;101642.30;1793237;80;21077;-77
2020/12/27 08:18:10;;;;;;;24.72;14.60;;;;;;;8.20;44.99;101645.25;1769222;80;21141;-79
2020/12/27 08:20:50;;;;;;;25.30;13.85;;;;;;;8.26;44.65;101643.45;1795922;80;21104;-78
2020/12/27 08:23:21;;;;;;;24.30;14.25;;;;;;;8.36;44.52;101642.31;1792050;80;21187;-81
2020/12/27 08:26:00;;;;;;;24.77;14.07;;;;;;;8.48;44.25;101642.73;1791243;80;21793;-78
2020/12/27 08:28:26;;;;;;;;;;;;;;;8.58;44.27;101644.22;1793070;80;21203;-81
2020/12/27 08:30:55;;;;;;;28.05;17.25;;;;;;;8.67;43.98;101640.85;1789686;80;20301;-79
2020/12/27 08:33:23;;;;;;;23.20;13.95;;;;;;;8.74;44.00;101642.59;1790438;80;21664;-79
2020/12/27 08:35:53;;;;;;;21.57;13.60;;;;;;;8.97;43.82;101638.99;1804852;78;21171;-79
2020/12/27 08:38:35;;;;;;;18.50;11.25;;;;;;;8.90;43.97;101644.43;1823300;78;24124;-79
2020/12/27 08:41:24;;;;;;;16.75;10.85;;;;;;;8.97;43.82;101642.16;1818046;77;21128;-79
2020/12/27 08:44:07;;;;;;;29.30;16.82;;;;;;;9.05;43.51;101643.27;1824576;78;21164;-80
2020/12/27 08:46:38;;;;;;;31.23;18.73;;;;;;;9.12;43.48;101643.13;1823588;78;21462;-78
2020/12/27 08:49:25;;;;;;;29.90;17.95;;;;;;;9.18;43.58;101651.19;1814201;78;21173;-80
2020/12/27 08:51:56;;;;;;;30.10;16.73;;;;;;;9.17;43.47;101643.27;1814510;79;21360;-81
2020/12/27 08:54:24;;;;;;;27.55;16.50;;;;;;;9.13;43.23;101647.53;1816895;77;21763;-78
2020/12/27 08:56:52;;;;;;;29.37;16.73;;;;;;;9.06;43.51;101639.61;1822852;77;21843;-78
2020/12/27 08:59:20;;;;;;;24.02;14.33;;;;;;;9.06;43.82;101635.61;1808848;77;21092;-78
2020/12/27 09:01:50;;;;;;;26.45;15.28;;;;;;;9.01;43.56;101641.80;1854344;77;21560;-77
2020/12/27 09:04:19;;;;;;;26.62;15.70;;;;;;;8.94;43.51;101639.22;1854942;77;22238;-79
2020/12/27 09:06:56;;;;;;;24.65;14.07;;;;;;;8.94;43.71;101641.89;1855377;77;21470;-79
2020/12/27 09:09:24;;;;;;;21.93;13.48;;;;;;;8.97;44.01;101638.99;1855029;77;21191;-81
2020/12/27 09:11:52;;;;;;;22.82;13.83;;;;;;;9.06;43.77;101635.61;1854432;77;21162;-81
2020/12/27 09:14:34;;;;;;;27.75;13.48;;;;;;;9.10;43.33;101638.41;1848017;76;21631;-79
2020/12/27 09:17:06;;;;;;;23.32;13.45;;;;;;;9.08;43.37;101644.38;1862511;76;21489;-79
2020/12/27 09:19:35;;;;;;;21.62;13.10;;;;;;;9.09;43.51;101637.20;1841447;76;21286;-78
2020/12/27 09:22:04;;;;;;;21.93;13.20;;;;;;;9.12;43.56;101647.63;1823319;77;21167;-79
2020/12/27 09:24:33;;;;;;;25.72;15.30;;;;;;;9.15;43.48;101643.39;1806670;78;21112;-79
2020/12/27 09:27:11;;;;;;;24.12;15.50;;;;;;;9.18;43.38;101647.17;1831629;78;21186;-80
2020/12/27 09:29:48;;;;;;;26.25;14.98;;;;;;;9.20;42.98;101651.05;1820486;78;21497;-80
2020/12/27 09:32:18;;;;;;;22.48;14.90;;;;;;;9.11;42.91;101651.28;1821590;78;21224;-79
2020/12/27 09:34:46;;;;;;;23.12;15.10;;;;;;;9.10;43.13;101651.77;1819851;77;21513;-78
2020/12/27 09:37:16;;;;;;;22.22;14.90;;;;;;;9.11;42.93;101656.14;1790137;78;21134;-78
2020/12/27 09:39:56;;;;;;;25.43;14.87;;;;;;;9.09;42.60;101660.77;1825725;78;21200;-77
2020/12/27 09:42:27;;;;;;;25.80;14.58;;;;;;;9.08;42.97;101663.08;1819993;78;21420;-78
2020/12/27 09:44:56;;;;;;;23.85;14.28;;;;;;;9.09;43.10;101658.59;1820809;78;21192;-80
2020/12/27 09:47:28;;;;;;;27.32;15.15;;;;;;;9.13;43.07;101654.22;1821340;78;21176;-79
2020/12/27 09:50:07;;;;;;;25.37;13.72;;;;;;;9.18;43.06;101644.99;1816460;78;21179;-77
2020/12/27 09:52:45;;;;;;;21.15;12.93;;;;;;;9.23;42.82;101649.48;1802724;77;21439;-79
2020/12/27 09:55:14;;;;;;;27.17;16.35;;;;;;;9.29;42.90;101657.86;1853394;77;21363;-79
2020/12/27 09:57:41;;;;;;;24.80;15.78;;;;;;;9.28;42.45;101656.17;1853134;77;21367;-77
2020/12/27 10:00:10;;;;;;;25.70;14.98;;;;;;;9.24;42.39;101654.70;1843139;77;21216;-78
2020/12/27 10:02:37;;;;;;;26.50;16.75;;;;;;;9.19;42.33;101662.73;1878192;76;21161;-79
2020/12/27 10:05:10;;;;;;;35.25;19.12;;;;;;;9.17;42.57;101667.32;1820845;78;21365;-77
2020/12/27 10:07:39;;;;;;;48.38;21.12;;;;;;;9.20;42.79;101670.61;1814387;78;21349;-79
2020/12/27 10:10:11;;;;;;;49.00;24.12;;;;;;;9.26;42.89;101674.63;1825697;77;21247;-83
2020/12/27 10:12:42;;;;;;;52.27;25.00;;;;;;;9.31;42.93;101679.12;1808739;77;21179;-80
2020/12/27 10:15:10;;;;;;;57.93;26.70;;;;;;;9.38;42.79;101687.04;1800803;79;21180;-79
2020/12/27 10:17:39;;;;;;;58.20;28.60;;;;;;;9.39;42.72;101680.72;1804077;76;21618;-80
2020/12/27 10:20:11;;;;;;;54.48;25.62;;;;;;;9.40;42.46;101681.08;1812738;78;22002;-78
2020/12/27 10:22:38;;;;;;;58.87;26.87;;;;;;;9.44;42.23;101673.17;1789534;79;21668;-78
2020/12/27 10:25:07;;;;;;;69.45;31.93;;;;;;;9.49;42.26;101668.80;1815665;78;21455;-79
2020/12/27 10:27:35;;;;;;;88.80;40.23;;;;;;;9.51;42.26;101662.86;1814179;78;21156;-78
2020/12/27 10:30:05;;;;;;;94.87;39.48;;;;;;;9.53;42.22;101665.77;1828665;78;21160;-81
2020/12/27 10:32:33;;;;;;;75.70;32.20;;;;;;;9.56;42.29;101664.19;1817684;78;21410;-77
2020/12/27 10:35:01;;;;;;;56.95;27.17;;;;;;;9.58;42.17;101662.27;1821113;77;21172;-78
2020/12/27 10:37:29;;;;;;;61.35;28.80;;;;;;;9.60;42.12;101666.98;1821126;78;21254;-80
2020/12/27 10:39:57;;;;;;;59.88;29.37;;;;;;;9.60;42.05;101657.63;1854791;77;21206;-80
2020/12/27 10:42:25;;;;;;;98.00;41.33;;;;;;;9.60;42.10;101656.29;1853795;77;21780;-79
2020/12/27 10:44:53;;;;;;;103.05;39.90;;;;;;;9.55;41.85;101657.14;1864961;76;21368;-80
2020/12/27 10:47:22;;;;;;;88.27;37.42;;;;;;;9.41;41.51;101652.05;1777720;78;21714;-77
2020/12/27 10:49:50;;;;;;;81.20;33.63;;;;;;;9.28;41.87;101647.30;1764921;81;21189;-80
2020/12/27 10:52:18;;;;;;;81.70;33.83;;;;;;;9.24;42.22;101645.34;1797917;79;21218;-79
2020/12/27 10:54:46;;;;;;;76.92;32.13;;;;;;;9.23;42.41;101647.66;1799820;78;21937;-79
2020/12/27 10:57:14;;;;;;;63.15;27.93;;;;;;;9.24;42.56;101644.01;1829314;78;21238;-79
2020/12/27 10:59:41;;;;;;;60.33;27.30;;;;;;;9.28;42.55;101644.63;1833496;78;21115;-77
2020/12/27 11:02:09;;;;;;;73.80;31.75;;;;;;;9.30;42.59;101629.30;1833675;78;21176;-79
2020/12/27 11:04:38;;;;;;;70.97;31.48;;;;;;;9.33;42.62;101632.59;1803402;78;21172;-78
2020/12/27 11:07:07;;;;;;;72.45;32.98;;;;;;;9.36;42.45;101634.19;1820719;78;21179;-79
2020/12/27 11:09:34;;;;;;;62.80;30.70;;;;;;;9.34;42.41;101632.95;1818815;78;21171;-79
2020/12/27 11:12:03;;;;;;;57.70;27.48;;;;;;;9.37;42.44;101634.55;1854023;77;21181;-81
2020/12/27 11:14:33;;;;;;;55.52;25.95;;;;;;;9.38;42.44;101636.23;1855362;77;21585;-80
2020/12/27 11:17:01;;;;;;;51.23;24.25;;;;;;;9.36;42.28;101636.37;1834954;77;21169;-80
2020/12/27 11:19:30;;;;;;;55.90;24.90;;;;;;;9.35;42.38;101633.30;1804931;77;21623;-80
2020/12/27 11:21:57;;;;;;;44.35;19.65;;;;;;;9.34;42.32;101634.28;1846523;76;21190;-77
2020/12/27 11:24:25;;;;;;;47.98;20.80;;;;;;;9.28;41.88;101625.91;1786737;79;21173;-78
2020/12/27 11:26:54;;;;;;;33.05;15.38;;;;;;;9.12;41.72;101623.09;1825366;78;21166;-79
2020/12/27 11:29:22;;;;;;;35.20;16.93;;;;;;;8.91;41.39;101619.92;1830403;78;21211;-80
2020/12/27 11:31:53;;;;;;;23.83;13.53;;;;;;;8.73;41.85;101615.52;1830474;78;21654;-81
2020/12/27 11:34:21;;;;;;;55.55;25.57;;;;;;;8.67;42.39;101610.63;1829153;78;21355;-81
2020/12/27 11:36:49;;;;;;;54.80;26.57;;;;;;;8.68;42.75;101602.52;1828533;78;21201;-80
2020/12/27 11:39:17;;;;;;;55.12;25.25;;;;;;;8.71;43.16;101608.94;1829207;78;21184;-80
2020/12/27 11:41:48;;;;;;;38.92;19.70;;;;;;;8.73;43.50;101599.48;1828669;78;21205;-78